Terminal Aerodrome Forecast
Issued by NWS Charleston, WV

Current Version | Previous Version | Graphics & Text | Print | Product List | Glossary On
Versions: 1 2 3 4 5 6 7 8 9 10 11 12 13 14 15 16 17 18 19 20 21 22 23 24 25 26 27 28 29 30 31 32 33
754
FTUS41 KRLX 282243 AAB
TAFCRW
TAF AMD
KCRW 282243Z 2823/2918 25003KT 2SM SHRA BR BKN004 OVC035
     FM290000 00000KT 3SM SHRA BR SCT008 OVC015
     FM290300 00000KT 2SM BR OVC008
     FM290900 00000KT 1SM BR SCT002 OVC006
     FM291300 00000KT 4SM BR BKN008
     FM291500 VRB03KT P6SM BKN012
     FM291600 27003KT P6SM VCSH BKN025=

USA.gov is the U.S. government's official web portal to all federal, state and local government web resources and services.